sensor_id;sensor_type;location;lat;lon;timestamp;pressure;altitude;pressure_sealevel;temperature;humidity
29505;BME280;16452;54.174;12.092;2023-02-17T00:01:22;101495.69;;;9.29;100.00
29505;BME280;16452;54.174;12.092;2023-02-17T00:03:49;101490.22;;;9.12;100.00
29505;BME280;16452;54.174;12.092;2023-02-17T00:06:17;101484.59;;;9.24;100.00
29505;BME280;16452;54.174;12.092;2023-02-17T00:08:44;101486.63;;;9.16;100.00
29505;BME280;16452;54.174;12.092;2023-02-17T00:11:10;101490.38;;;9.32;100.00
29505;BME280;16452;54.174;12.092;2023-02-17T00:13:36;101479.88;;;9.10;100.00
29505;BME280;16452;54.174;12.092;2023-02-17T00:16:17;101483.28;;;9.12;100.00
29505;BME280;16452;54.174;12.092;2023-02-17T00:18:51;101486.44;;;9.20;100.00
29505;BME280;16452;54.174;12.092;2023-02-17T00:21:20;101488.91;;;9.00;100.00
29505;BME280;16452;54.174;12.092;2023-02-17T00:23:47;101484.50;;;9.02;100.00
29505;BME280;16452;54.174;12.092;2023-02-17T00:26:15;101486.34;;;9.23;100.00
29505;BME280;16452;54.174;12.092;2023-02-17T00:28:42;101477.53;;;9.27;100.00
29505;BME280;16452;54.174;12.092;2023-02-17T00:31:15;101479.91;;;9.33;100.00
29505;BME280;16452;54.174;12.092;2023-02-17T00:33:41;101469.47;;;9.35;100.00
29505;BME280;16452;54.174;12.092;2023-02-17T00:36:11;101469.47;;;9.10;100.00
29505;BME280;16452;54.174;12.092;2023-02-17T00:38:38;101469.47;;;9.35;100.00
29505;BME280;16452;54.174;12.092;2023-02-17T00:41:04;101470.28;;;9.37;100.00
29505;BME280;16452;54.174;12.092;2023-02-17T00:43:30;101476.28;;;9.14;100.00
29505;BME280;16452;54.174;12.092;2023-02-17T00:45:55;101476.47;;;9.33;100.00
29505;BME280;16452;54.174;12.092;2023-02-17T00:48:22;101467.34;;;9.21;100.00
29505;BME280;16452;54.174;12.092;2023-02-17T00:50:48;101463.75;;;9.25;100.00
29505;BME280;16452;54.174;12.092;2023-02-17T00:53:14;101454.28;;;9.47;100.00
29505;BME280;16452;54.174;12.092;2023-02-17T00:55:40;101452.84;;;9.39;100.00
29505;BME280;16452;54.174;12.092;2023-02-17T00:58:06;101443.75;;;9.27;100.00
29505;BME280;16452;54.174;12.092;2023-02-17T01:00:31;101446.13;;;9.33;100.00
29505;BME280;16452;54.174;12.092;2023-02-17T01:02:57;101436.44;;;9.14;100.00
29505;BME280;16452;54.174;12.092;2023-02-17T01:05:23;101429.25;;;9.20;100.00
29505;BME280;16452;54.174;12.092;2023-02-17T01:07:49;101435.00;;;9.30;100.00
29505;BME280;16452;54.174;12.092;2023-02-17T01:10:14;101429.88;;;9.27;100.00
29505;BME280;16452;54.174;12.092;2023-02-17T01:12:40;101425.84;;;9.20;100.00
29505;BME280;16452;54.174;12.092;2023-02-17T01:15:06;101405.25;;;9.14;100.00
29505;BME280;16452;54.174;12.092;2023-02-17T01:17:32;101410.16;;;9.21;100.00
29505;BME280;16452;54.174;12.092;2023-02-17T01:19:58;101405.09;;;9.41;100.00
29505;BME280;16452;54.174;12.092;2023-02-17T01:22:24;101396.63;;;9.36;100.00
29505;BME280;16452;54.174;12.092;2023-02-17T01:24:49;101397.03;;;9.26;100.00
29505;BME280;16452;54.174;12.092;2023-02-17T01:27:15;101385.53;;;9.08;100.00
29505;BME280;16452;54.174;12.092;2023-02-17T01:29:44;101385.03;;;9.22;100.00
29505;BME280;16452;54.174;12.092;2023-02-17T01:32:10;101378.00;;;9.00;100.00
29505;BME280;16452;54.174;12.092;2023-02-17T01:34:37;101373.28;;;9.12;100.00
29505;BME280;16452;54.174;12.092;2023-02-17T01:37:03;101364.75;;;9.08;100.00
29505;BME280;16452;54.174;12.092;2023-02-17T01:39:28;101365.44;;;9.13;100.00
29505;BME280;16452;54.174;12.092;2023-02-17T01:41:54;101372.78;;;9.25;100.00
29505;BME280;16452;54.174;12.092;2023-02-17T01:44:24;101365.81;;;9.26;100.00
29505;BME280;16452;54.174;12.092;2023-02-17T01:46:52;101361.97;;;9.36;100.00
29505;BME280;16452;54.174;12.092;2023-02-17T01:52:07;101347.69;;;9.24;100.00
29505;BME280;16452;54.174;12.092;2023-02-17T01:54:46;101344.28;;;9.22;100.00
29505;BME280;16452;54.174;12.092;2023-02-17T01:57:18;101344.06;;;9.05;100.00
29505;BME280;16452;54.174;12.092;2023-02-17T01:59:46;101333.22;;;9.17;100.00
29505;BME280;16452;54.174;12.092;2023-02-17T02:02:12;101331.47;;;9.18;100.00
29505;BME280;16452;54.174;12.092;2023-02-17T02:04:42;101328.72;;;9.21;100.00
29505;BME280;16452;54.174;12.092;2023-02-17T02:07:31;101317.03;;;9.32;100.00
29505;BME280;16452;54.174;12.092;2023-02-17T02:09:59;101315.63;;;9.24;100.00
29505;BME280;16452;54.174;12.092;2023-02-17T02:12:32;101294.94;;;9.21;100.00
29505;BME280;16452;54.174;12.092;2023-02-17T02:15:14;101286.00;;;9.28;100.00
29505;BME280;16452;54.174;12.092;2023-02-17T02:18:28;101284.59;;;9.42;100.00
29505;BME280;16452;54.174;12.092;2023-02-17T02:33:24;101276.34;;;9.31;100.00
29505;BME280;16452;54.174;12.092;2023-02-17T02:36:10;101268.28;;;9.16;100.00
29505;BME280;16452;54.174;12.092;2023-02-17T02:39:13;101254.53;;;9.35;100.00
29505;BME280;16452;54.174;12.092;2023-02-17T02:41:44;101238.97;;;9.34;100.00
29505;BME280;16452;54.174;12.092;2023-02-17T02:44:16;101233.66;;;9.37;100.00
29505;BME280;16452;54.174;12.092;2023-02-17T02:46:42;101241.34;;;9.18;100.00
29505;BME280;16452;54.174;12.092;2023-02-17T02:49:08;101241.53;;;9.35;100.00
29505;BME280;16452;54.174;12.092;2023-02-17T02:52:01;101235.03;;;9.45;100.00
29505;BME280;16452;54.174;12.092;2023-02-17T03:00:18;101219.38;;;9.47;100.00
29505;BME280;16452;54.174;12.092;2023-02-17T03:06:17;101211.81;;;9.41;100.00
29505;BME280;16452;54.174;12.092;2023-02-17T03:08:53;101217.38;;;9.54;100.00
29505;BME280;16452;54.174;12.092;2023-02-17T03:11:24;101202.88;;;9.48;100.00
29505;BME280;16452;54.174;12.092;2023-02-17T03:14:12;101204.88;;;9.41;100.00
29505;BME280;16452;54.174;12.092;2023-02-17T03:16:40;101195.06;;;9.48;100.00
29505;BME280;16452;54.174;12.092;2023-02-17T03:19:08;101199.22;;;9.52;100.00
29505;BME280;16452;54.174;12.092;2023-02-17T03:21:49;101199.19;;;9.54;100.00
29505;BME280;16452;54.174;12.092;2023-02-17T03:24:16;101188.44;;;9.61;100.00
29505;BME280;16452;54.174;12.092;2023-02-17T03:26:41;101175.63;;;9.57;100.00
29505;BME280;16452;54.174;12.092;2023-02-17T03:29:07;101177.53;;;9.53;100.00
29505;BME280;16452;54.174;12.092;2023-02-17T03:31:33;101186.44;;;9.47;100.00
29505;BME280;16452;54.174;12.092;2023-02-17T03:33:59;101174.69;;;9.59;100.00
29505;BME280;16452;54.174;12.092;2023-02-17T03:36:25;101165.16;;;9.58;100.00
29505;BME280;16452;54.174;12.092;2023-02-17T03:38:51;101162.69;;;9.55;100.00
29505;BME280;16452;54.174;12.092;2023-02-17T03:41:17;101156.28;;;9.64;100.00
29505;BME280;16452;54.174;12.092;2023-02-17T03:43:42;101156.72;;;9.73;100.00
29505;BME280;16452;54.174;12.092;2023-02-17T03:46:13;101158.34;;;9.76;100.00
29505;BME280;16452;54.174;12.092;2023-02-17T03:48:39;101162.97;;;9.89;100.00
29505;BME280;16452;54.174;12.092;2023-02-17T03:51:17;101159.38;;;9.92;100.00
29505;BME280;16452;54.174;12.092;2023-02-17T03:53:44;101163.56;;;9.76;100.00
29505;BME280;16452;54.174;12.092;2023-02-17T03:56:12;101170.78;;;9.89;100.00
29505;BME280;16452;54.174;12.092;2023-02-17T03:58:39;101160.09;;;9.75;100.00
29505;BME280;16452;54.174;12.092;2023-02-17T04:01:06;101156.47;;;9.79;100.00
29505;BME280;16452;54.174;12.092;2023-02-17T04:03:33;101160.38;;;9.69;100.00
29505;BME280;16452;54.174;12.092;2023-02-17T04:05:59;101154.13;;;9.73;100.00
29505;BME280;16452;54.174;12.092;2023-02-17T04:08:26;101149.97;;;9.69;100.00
29505;BME280;16452;54.174;12.092;2023-02-17T04:10:58;101146.41;;;9.72;100.00
29505;BME280;16452;54.174;12.092;2023-02-17T04:13:25;101140.84;;;9.79;100.00
29505;BME280;16452;54.174;12.092;2023-02-17T04:15:52;101140.84;;;9.79;100.00
29505;BME280;16452;54.174;12.092;2023-02-17T04:18:19;101122.47;;;10.03;100.00
29505;BME280;16452;54.174;12.092;2023-02-17T04:20:48;101121.63;;;10.02;100.00
29505;BME280;16452;54.174;12.092;2023-02-17T04:23:15;101125.22;;;10.00;100.00
29505;BME280;16452;54.174;12.092;2023-02-17T04:25:41;101123.81;;;9.93;100.00
29505;BME280;16452;54.174;12.092;2023-02-17T04:28:07;101141.06;;;9.95;100.00
29505;BME280;16452;54.174;12.092;2023-02-17T04:30:34;101139.94;;;10.01;100.00
29505;BME280;16452;54.174;12.092;2023-02-17T04:33:00;101146.78;;;9.83;100.00
29505;BME280;16452;54.174;12.092;2023-02-17T04:35:26;101152.44;;;9.93;100.00
29505;BME280;16452;54.174;12.092;2023-02-17T04:37:52;101130.28;;;10.03;100.00
29505;BME280;16452;54.174;12.092;2023-02-17T04:40:18;101142.91;;;9.92;100.00
29505;BME280;16452;54.174;12.092;2023-02-17T04:42:44;101126.94;;;10.01;100.00
29505;BME280;16452;54.174;12.092;2023-02-17T04:45:11;101120.44;;;10.09;100.00
29505;BME280;16452;54.174;12.092;2023-02-17T04:47:37;101121.28;;;10.10;100.00
29505;BME280;16452;54.174;12.092;2023-02-17T04:50:05;101103.63;;;10.18;100.00
29505;BME280;16452;54.174;12.092;2023-02-17T04:52:31;101096.06;;;10.12;100.00
29505;BME280;16452;54.174;12.092;2023-02-17T04:54:57;101088.09;;;10.15;100.00
29505;BME280;16452;54.174;12.092;2023-02-17T04:57:23;101093.31;;;10.15;100.00
29505;BME280;16452;54.174;12.092;2023-02-17T04:59:48;101078.53;;;10.15;100.00
29505;BME280;16452;54.174;12.092;2023-02-17T05:02:14;101078.44;;;10.18;100.00
29505;BME280;16452;54.174;12.092;2023-02-17T05:04:40;101075.13;;;10.13;100.00
29505;BME280;16452;54.174;12.092;2023-02-17T05:07:06;101076.84;;;10.14;100.00
29505;BME280;16452;54.174;12.092;2023-02-17T05:09:31;101071.81;;;10.30;100.00
29505;BME280;16452;54.174;12.092;2023-02-17T05:11:57;101075.69;;;10.21;100.00
29505;BME280;16452;54.174;12.092;2023-02-17T05:14:23;101065.19;;;10.23;100.00
29505;BME280;16452;54.174;12.092;2023-02-17T05:16:49;101055.09;;;10.15;100.00
29505;BME280;16452;54.174;12.092;2023-02-17T05:19:15;101049.66;;;10.21;100.00
29505;BME280;16452;54.174;12.092;2023-02-17T05:21:40;101044.75;;;10.14;100.00
29505;BME280;16452;54.174;12.092;2023-02-17T05:24:06;101049.88;;;10.15;100.00
29505;BME280;16452;54.174;12.092;2023-02-17T05:26:32;101046.59;;;10.12;100.00
29505;BME280;16452;54.174;12.092;2023-02-17T05:28:58;101047.34;;;10.14;100.00
29505;BME280;16452;54.174;12.092;2023-02-17T05:31:23;101054.56;;;10.27;100.00
29505;BME280;16452;54.174;12.092;2023-02-17T05:33:49;101041.13;;;10.37;100.00
29505;BME280;16452;54.174;12.092;2023-02-17T05:36:15;101039.72;;;10.29;100.00
29505;BME280;16452;54.174;12.092;2023-02-17T05:38:41;101045.50;;;10.17;100.00
29505;BME280;16452;54.174;12.092;2023-02-17T05:41:12;101034.78;;;10.42;100.00
29505;BME280;16452;54.174;12.092;2023-02-17T05:43:38;101030.50;;;10.41;100.00
29505;BME280;16452;54.174;12.092;2023-02-17T05:46:04;101025.38;;;10.21;100.00
29505;BME280;16452;54.174;12.092;2023-02-17T05:48:31;101024.78;;;10.14;100.00
29505;BME280;16452;54.174;12.092;2023-02-17T05:50:57;101017.16;;;10.30;100.00
29505;BME280;16452;54.174;12.092;2023-02-17T05:53:23;101018.56;;;10.18;100.00
29505;BME280;16452;54.174;12.092;2023-02-17T05:55:48;101012.41;;;10.19;100.00
29505;BME280;16452;54.174;12.092;2023-02-17T05:58:14;101005.53;;;10.18;100.00
29505;BME280;16452;54.174;12.092;2023-02-17T06:00:40;100995.38;;;10.31;100.00
29505;BME280;16452;54.174;12.092;2023-02-17T06:03:06;100991.41;;;10.24;100.00
29505;BME280;16452;54.174;12.092;2023-02-17T06:05:32;100988.31;;;10.14;100.00
29505;BME280;16452;54.174;12.092;2023-02-17T06:07:58;100977.56;;;10.41;100.00
29505;BME280;16452;54.174;12.092;2023-02-17T06:10:23;100983.06;;;10.16;100.00
29505;BME280;16452;54.174;12.092;2023-02-17T06:12:49;100986.09;;;10.07;100.00
29505;BME280;16452;54.174;12.092;2023-02-17T06:15:15;100986.78;;;10.10;100.00
29505;BME280;16452;54.174;12.092;2023-02-17T06:17:41;100985.56;;;10.19;100.00
29505;BME280;16452;54.174;12.092;2023-02-17T06:20:08;100983.34;;;10.10;100.00
29505;BME280;16452;54.174;12.092;2023-02-17T06:22:33;100986.47;;;10.18;100.00
29505;BME280;16452;54.174;12.092;2023-02-17T06:24:59;100976.31;;;10.31;100.00
29505;BME280;16452;54.174;12.092;2023-02-17T06:27:25;100972.81;;;10.13;100.00
29505;BME280;16452;54.174;12.092;2023-02-17T06:29:51;100969.00;;;10.20;100.00
29505;BME280;16452;54.174;12.092;2023-02-17T06:32:17;100974.06;;;10.23;100.00
29505;BME280;16452;54.174;12.092;2023-02-17T06:34:42;100973.06;;;10.25;100.00
29505;BME280;16452;54.174;12.092;2023-02-17T06:37:08;100962.22;;;10.16;100.00
29505;BME280;16452;54.174;12.092;2023-02-17T06:39:34;100958.84;;;10.14;100.00
29505;BME280;16452;54.174;12.092;2023-02-17T06:42:00;100953.38;;;10.20;100.00
29505;BME280;16452;54.174;12.092;2023-02-17T06:44:25;100948.88;;;10.23;100.00
29505;BME280;16452;54.174;12.092;2023-02-17T06:46:51;100957.31;;;10.10;100.00
29505;BME280;16452;54.174;12.092;2023-02-17T06:49:17;100942.47;;;10.12;100.00
29505;BME280;16452;54.174;12.092;2023-02-17T06:51:43;100937.91;;;10.17;100.00
29505;BME280;16452;54.174;12.092;2023-02-17T06:54:09;100929.88;;;10.03;100.00
29505;BME280;16452;54.174;12.092;2023-02-17T06:56:34;100923.69;;;10.24;100.00
29505;BME280;16452;54.174;12.092;2023-02-17T06:59:01;100912.81;;;10.33;100.00
29505;BME280;16452;54.174;12.092;2023-02-17T07:01:27;100900.88;;;10.29;100.00
29505;BME280;16452;54.174;12.092;2023-02-17T07:03:54;100903.94;;;10.37;100.00
29505;BME280;16452;54.174;12.092;2023-02-17T07:06:23;100894.66;;;10.32;100.00
29505;BME280;16452;54.174;12.092;2023-02-17T07:08:49;100902.41;;;10.33;100.00
29505;BME280;16452;54.174;12.092;2023-02-17T07:11:16;100897.56;;;10.25;100.00
29505;BME280;16452;54.174;12.092;2023-02-17T07:13:43;100892.75;;;10.18;100.00
29505;BME280;16452;54.174;12.092;2023-02-17T07:16:12;100890.69;;;10.24;100.00
29505;BME280;16452;54.174;12.092;2023-02-17T07:18:38;100894.91;;;10.27;100.00
29505;BME280;16452;54.174;12.092;2023-02-17T07:21:08;100892.72;;;10.37;100.00
29505;BME280;16452;54.174;12.092;2023-02-17T07:23:35;100892.78;;;10.35;100.00
29505;BME280;16452;54.174;12.092;2023-02-17T07:26:07;100883.50;;;10.29;100.00
29505;BME280;16452;54.174;12.092;2023-02-17T07:28:34;100880.06;;;10.46;100.00
29505;BME280;16452;54.174;12.092;2023-02-17T07:31:09;100865.34;;;10.45;100.00
29505;BME280;16452;54.174;12.092;2023-02-17T07:33:36;100866.56;;;10.38;100.00
29505;BME280;16452;54.174;12.092;2023-02-17T07:36:11;100864.44;;;10.29;100.00
29505;BME280;16452;54.174;12.092;2023-02-17T07:38:37;100859.59;;;10.39;100.00
29505;BME280;16452;54.174;12.092;2023-02-17T07:41:09;100864.56;;;10.60;100.00
29505;BME280;16452;54.174;12.092;2023-02-17T07:43:36;100855.16;;;10.58;100.00
29505;BME280;16452;54.174;12.092;2023-02-17T07:46:03;100846.44;;;10.59;100.00
29505;BME280;16452;54.174;12.092;2023-02-17T07:48:29;100839.66;;;10.55;100.00
29505;BME280;16452;54.174;12.092;2023-02-17T07:50:55;100841.97;;;10.61;100.00
29505;BME280;16452;54.174;12.092;2023-02-17T07:53:21;100831.25;;;10.50;100.00
29505;BME280;16452;54.174;12.092;2023-02-17T07:55:47;100826.16;;;10.48;100.00
29505;BME280;16452;54.174;12.092;2023-02-17T07:58:12;100815.16;;;10.59;100.00
29505;BME280;16452;54.174;12.092;2023-02-17T08:00:38;100811.66;;;10.60;100.00
29505;BME280;16452;54.174;12.092;2023-02-17T08:03:04;100808.09;;;10.61;100.00
29505;BME280;16452;54.174;12.092;2023-02-17T08:05:30;100805.34;;;10.64;100.00
29505;BME280;16452;54.174;12.092;2023-02-17T08:07:55;100805.59;;;10.59;100.00
29505;BME280;16452;54.174;12.092;2023-02-17T08:10:40;100805.59;;;10.59;100.00
29505;BME280;16452;54.174;12.092;2023-02-17T08:13:26;100810.91;;;10.74;100.00
29505;BME280;16452;54.174;12.092;2023-02-17T08:15:52;100797.56;;;10.80;100.00
29505;BME280;16452;54.174;12.092;2023-02-17T08:18:18;100780.63;;;10.88;100.00
29505;BME280;16452;54.174;12.092;2023-02-17T08:20:44;100769.78;;;10.63;100.00
29505;BME280;16452;54.174;12.092;2023-02-17T08:23:10;100771.84;;;10.89;100.00
29505;BME280;16452;54.174;12.092;2023-02-17T08:25:36;100777.91;;;10.90;100.00
29505;BME280;16452;54.174;12.092;2023-02-17T08:28:04;100768.69;;;11.00;100.00
29505;BME280;16452;54.174;12.092;2023-02-17T08:30:34;100755.75;;;10.98;100.00
29505;BME280;16452;54.174;12.092;2023-02-17T08:33:01;100758.94;;;11.03;100.00
29505;BME280;16452;54.174;12.092;2023-02-17T08:35:27;100746.56;;;10.91;100.00
29505;BME280;16452;54.174;12.092;2023-02-17T08:37:52;100732.53;;;10.94;100.00
29505;BME280;16452;54.174;12.092;2023-02-17T08:40:18;100734.56;;;11.04;100.00
29505;BME280;16452;54.174;12.092;2023-02-17T08:42:44;100727.91;;;10.99;100.00
29505;BME280;16452;54.174;12.092;2023-02-17T08:45:13;100724.28;;;11.01;100.00
29505;BME280;16452;54.174;12.092;2023-02-17T08:47:39;100725.88;;;11.04;100.00
29505;BME280;16452;54.174;12.092;2023-02-17T08:50:06;100709.84;;;11.11;100.00
29505;BME280;16452;54.174;12.092;2023-02-17T08:52:33;100706.72;;;11.05;100.00
29505;BME280;16452;54.174;12.092;2023-02-17T08:54:59;100698.81;;;11.06;100.00
29505;BME280;16452;54.174;12.092;2023-02-17T08:57:25;100688.47;;;11.21;100.00
29505;BME280;16452;54.174;12.092;2023-02-17T08:59:52;100675.00;;;11.12;100.00
29505;BME280;16452;54.174;12.092;2023-02-17T09:02:18;100669.44;;;11.19;100.00
29505;BME280;16452;54.174;12.092;2023-02-17T09:04:44;100666.91;;;11.33;100.00
29505;BME280;16452;54.174;12.092;2023-02-17T09:07:12;100669.09;;;11.40;100.00
29505;BME280;16452;54.174;12.092;2023-02-17T09:09:40;100668.41;;;11.37;100.00
29505;BME280;16452;54.174;12.092;2023-02-17T09:12:06;100666.06;;;11.32;100.00
29505;BME280;16452;54.174;12.092;2023-02-17T09:14:32;100656.31;;;11.20;100.00
29505;BME280;16452;54.174;12.092;2023-02-17T09:16:58;100647.03;;;11.46;100.00
29505;BME280;16452;54.174;12.092;2023-02-17T09:19:25;100629.41;;;11.49;100.00
29505;BME280;16452;54.174;12.092;2023-02-17T09:21:51;100615.41;;;11.36;100.00
29505;BME280;16452;54.174;12.092;2023-02-17T09:24:17;100610.28;;;11.35;100.00
29505;BME280;16452;54.174;12.092;2023-02-17T09:26:43;100613.75;;;11.35;100.00
29505;BME280;16452;54.174;12.092;2023-02-17T09:29:09;100601.06;;;11.43;100.00
29505;BME280;16452;54.174;12.092;2023-02-17T09:31:38;100597.63;;;11.43;100.00
29505;BME280;16452;54.174;12.092;2023-02-17T09:34:04;100602.28;;;11.38;100.00
29505;BME280;16452;54.174;12.092;2023-02-17T09:36:38;100592.38;;;11.29;100.00
29505;BME280;16452;54.174;12.092;2023-02-17T09:39:04;100580.78;;;11.48;100.00
29505;BME280;16452;54.174;12.092;2023-02-17T09:41:47;100577.13;;;11.81;100.00
29505;BME280;16452;54.174;12.092;2023-02-17T09:44:45;100560.38;;;11.99;100.00
29505;BME280;16452;54.174;12.092;2023-02-17T09:47:25;100561.00;;;11.74;100.00
29505;BME280;16452;54.174;12.092;2023-02-17T09:49:59;100558.03;;;11.80;100.00
29505;BME280;16452;54.174;12.092;2023-02-17T09:52:54;100552.47;;;11.71;100.00
29505;BME280;16452;54.174;12.092;2023-02-17T09:55:33;100556.66;;;11.45;100.00
29505;BME280;16452;54.174;12.092;2023-02-17T10:00:57;100549.59;;;11.61;100.00
29505;BME280;16452;54.174;12.092;2023-02-17T10:03:49;100550.03;;;11.53;100.00
29505;BME280;16452;54.174;12.092;2023-02-17T10:06:24;100548.09;;;11.71;100.00
29505;BME280;16452;54.174;12.092;2023-02-17T10:09:18;100540.56;;;11.67;100.00
29505;BME280;16452;54.174;12.092;2023-02-17T10:12:23;100523.41;;;11.63;100.00
29505;BME280;16452;54.174;12.092;2023-02-17T10:15:09;100532.34;;;11.73;100.00
29505;BME280;16452;54.174;12.092;2023-02-17T10:18:13;100530.13;;;11.67;100.00
29505;BME280;16452;54.174;12.092;2023-02-17T10:20:57;100535.91;;;11.58;100.00
29505;BME280;16452;54.174;12.092;2023-02-17T10:23:27;100538.13;;;11.64;100.00
29505;BME280;16452;54.174;12.092;2023-02-17T10:26:23;100522.84;;;11.72;100.00
29505;BME280;16452;54.174;12.092;2023-02-17T10:34:10;100518.56;;;11.71;100.00
29505;BME280;16452;54.174;12.092;2023-02-17T10:37:22;100513.31;;;11.71;100.00
29505;BME280;16452;54.174;12.092;2023-02-17T10:39:53;100509.63;;;11.89;100.00
29505;BME280;16452;54.174;12.092;2023-02-17T10:42:38;100513.84;;;11.91;100.00
29505;BME280;16452;54.174;12.092;2023-02-17T10:45:37;100501.91;;;11.87;100.00
29505;BME280;16452;54.174;12.092;2023-02-17T10:48:37;100491.09;;;11.93;100.00
29505;BME280;16452;54.174;12.092;2023-02-17T10:51:06;100482.81;;;11.87;100.00
29505;BME280;16452;54.174;12.092;2023-02-17T10:53:36;100476.19;;;11.81;100.00
29505;BME280;16452;54.174;12.092;2023-02-17T10:56:19;100468.63;;;11.77;100.00
29505;BME280;16452;54.174;12.092;2023-02-17T10:58:54;100459.56;;;11.97;100.00
29505;BME280;16452;54.174;12.092;2023-02-17T11:01:22;100453.97;;;11.88;100.00
29505;BME280;16452;54.174;12.092;2023-02-17T11:04:05;100461.50;;;12.07;100.00
29505;BME280;16452;54.174;12.092;2023-02-17T11:06:49;100469.63;;;12.03;100.00
29505;BME280;16452;54.174;12.092;2023-02-17T11:09:19;100462.81;;;12.00;100.00
29505;BME280;16452;54.174;12.092;2023-02-17T11:12:02;100464.84;;;12.09;100.00
29505;BME280;16452;54.174;12.092;2023-02-17T11:14:31;100469.59;;;12.17;100.00
29505;BME280;16452;54.174;12.092;2023-02-17T11:17:02;100461.31;;;12.10;100.00
29505;BME280;16452;54.174;12.092;2023-02-17T11:19:32;100447.25;;;11.99;100.00
29505;BME280;16452;54.174;12.092;2023-02-17T11:22:01;100435.13;;;11.98;100.00
29505;BME280;16452;54.174;12.092;2023-02-17T11:24:31;100441.16;;;12.12;100.00
29505;BME280;16452;54.174;12.092;2023-02-17T11:27:07;100434.59;;;12.19;100.00
29505;BME280;16452;54.174;12.092;2023-02-17T11:29:33;100435.94;;;12.12;100.00
29505;BME280;16452;54.174;12.092;2023-02-17T11:32:07;100418.03;;;12.06;100.00
29505;BME280;16452;54.174;12.092;2023-02-17T11:34:41;100428.75;;;12.16;100.00
29505;BME280;16452;54.174;12.092;2023-02-17T11:39:47;100409.56;;;12.29;100.00
29505;BME280;16452;54.174;12.092;2023-02-17T11:42:29;100408.41;;;12.21;100.00
29505;BME280;16452;54.174;12.092;2023-02-17T11:44:58;100413.72;;;12.19;100.00
29505;BME280;16452;54.174;12.092;2023-02-17T11:50:44;100410.78;;;12.24;100.00
29505;BME280;16452;54.174;12.092;2023-02-17T11:56:16;100412.97;;;12.17;100.00
29505;BME280;16452;54.174;12.092;2023-02-17T12:10:44;100389.63;;;12.41;100.00
29505;BME280;16452;54.174;12.092;2023-02-17T12:13:54;100384.09;;;12.33;100.00
29505;BME280;16452;54.174;12.092;2023-02-17T12:19:37;100373.84;;;12.30;100.00
29505;BME280;16452;54.174;12.092;2023-02-17T12:22:19;100391.63;;;12.38;100.00
29505;BME280;16452;54.174;12.092;2023-02-17T12:36:14;100366.13;;;12.41;100.00
29505;BME280;16452;54.174;12.092;2023-02-17T12:38:52;100360.81;;;12.43;100.00
29505;BME280;16452;54.174;12.092;2023-02-17T12:41:30;100354.78;;;12.55;100.00
29505;BME280;16452;54.174;12.092;2023-02-17T12:44:11;100356.44;;;12.56;100.00
29505;BME280;16452;54.174;12.092;2023-02-17T12:46:43;100351.00;;;12.46;100.00
29505;BME280;16452;54.174;12.092;2023-02-17T12:54:51;100361.38;;;12.73;100.00
29505;BME280;16452;54.174;12.092;2023-02-17T13:00:22;100357.28;;;12.56;100.00
29505;BME280;16452;54.174;12.092;2023-02-17T13:02:50;100366.03;;;12.43;100.00
29505;BME280;16452;54.174;12.092;2023-02-17T13:08:06;100337.09;;;12.46;100.00
29505;BME280;16452;54.174;12.092;2023-02-17T13:10:38;100345.97;;;12.43;100.00
29505;BME280;16452;54.174;12.092;2023-02-17T13:13:24;100341.38;;;12.47;100.00
29505;BME280;16452;54.174;12.092;2023-02-17T13:16:09;100335.72;;;12.53;100.00
29505;BME280;16452;54.174;12.092;2023-02-17T13:18:44;100338.75;;;12.47;100.00
29505;BME280;16452;54.174;12.092;2023-02-17T13:24:03;100321.41;;;12.58;100.00
29505;BME280;16452;54.174;12.092;2023-02-17T13:26:36;100334.06;;;12.39;100.00
29505;BME280;16452;54.174;12.092;2023-02-17T13:29:31;100339.72;;;12.58;100.00
29505;BME280;16452;54.174;12.092;2023-02-17T13:32:01;100331.16;;;12.56;100.00
29505;BME280;16452;54.174;12.092;2023-02-17T13:34:39;100326.34;;;12.50;100.00
29505;BME280;16452;54.174;12.092;2023-02-17T13:37:38;100345.78;;;12.59;100.00
29505;BME280;16452;54.174;12.092;2023-02-17T13:42:44;100328.94;;;12.38;100.00
29505;BME280;16452;54.174;12.092;2023-02-17T13:50:49;100311.50;;;12.51;100.00
29505;BME280;16452;54.174;12.092;2023-02-17T13:53:30;100306.06;;;12.54;100.00
29505;BME280;16452;54.174;12.092;2023-02-17T13:56:22;100308.66;;;12.54;100.00
29505;BME280;16452;54.174;12.092;2023-02-17T13:58:48;100290.69;;;12.49;100.00
29505;BME280;16452;54.174;12.092;2023-02-17T14:01:18;100299.06;;;12.54;100.00
29505;BME280;16452;54.174;12.092;2023-02-17T14:03:51;100297.91;;;12.58;100.00
29505;BME280;16452;54.174;12.092;2023-02-17T14:06:35;100288.38;;;12.70;100.00
29505;BME280;16452;54.174;12.092;2023-02-17T14:09:29;100279.94;;;12.54;100.00
29505;BME280;16452;54.174;12.092;2023-02-17T14:12:00;100279.84;;;12.68;100.00
29505;BME280;16452;54.174;12.092;2023-02-17T14:14:36;100270.09;;;12.70;100.00
29505;BME280;16452;54.174;12.092;2023-02-17T14:17:07;100285.69;;;12.46;100.00
29505;BME280;16452;54.174;12.092;2023-02-17T14:19:45;100305.44;;;12.50;100.00
29505;BME280;16452;54.174;12.092;2023-02-17T14:22:41;100297.38;;;12.41;100.00